This is the latest recevied weather packets stored in our database for station/object N8SHA. If no packets are shown the sender has not sent any weather packets the latest 10 day(s).
| Time | Temp. | Humidity | Pressure | Rain* | Wind** | Luminosity | Snow |
|---|---|---|---|---|---|---|---|
| 1777843841 | 16.11° C | 45% | 1008.8 hPa | 0 mm | - | 84 W/m² | - |
| 1777843539 | 16.11° C | 45% | 1008.8 hPa | 0 mm | - | 163 W/m² | - |
| 1777843236 | 16.67° C | 44% | 1008.5 hPa | 0 mm | - | 164 W/m² | - |
| 1777842933 | 16.11° C | 44% | 1008.7 hPa | 0 mm | - | 368 W/m² | - |
| 1777842628 | 16.11° C | 44% | 1008.6 hPa | 0 mm | - | 182 W/m² | - |
| 1777842326 | 16.67° C | 43% | 1008.8 hPa | 0 mm | - | 194 W/m² | - |
| 1777842021 | 17.22° C | 42% | 1008.7 hPa | 0 mm | - | 179 W/m² | - |
| 1777841718 | 16.67° C | 44% | 1008.8 hPa | 0 mm | - | 330 W/m² | - |
| 1777841415 | 16.67° C | 42% | 1008.8 hPa | 0 mm | - | 232 W/m² | - |
| 1777841112 | 17.78° C | 41% | 1008.8 hPa | 0 mm | - | 297 W/m² | - |
| 1777840809 | 18.33° C | 40% | 1008.5 hPa | 0 mm | - | 265 W/m² | - |
| 1777840506 | 17.78° C | 39% | 1008.8 hPa | 0 mm | - | 220 W/m² | - |
| 1777840203 | 17.22° C | 40% | 1008.9 hPa | 0 mm | - | 672 W/m² | - |
| 1777839901 | 17.22° C | 41% | 1009 hPa | 0 mm | - | 215 W/m² | - |
| 1777839599 | 18.89° C | 38% | 1008.8 hPa | 0 mm | - | 223 W/m² | - |
| 1777839296 | 18.33° C | 38% | 1008.9 hPa | 0 mm | - | 678 W/m² | - |
| 1777838993 | 18.33° C | 41% | 1008.9 hPa | 0 mm | - | 722 W/m² | - |
| 1777838690 | 18.33° C | 40% | 1009 hPa | 0 mm | - | 697 W/m² | - |
| 1777838386 | 17.78° C | 40% | 1009.1 hPa | 0 mm | - | 629 W/m² | - |
| 1777838084 | 17.78° C | 38% | 1009.1 hPa | 0 mm | - | 248 W/m² | - |
| 1777837780 | 17.78° C | 38% | 1009.3 hPa | 0 mm | - | 334 W/m² | - |
| 1777837477 | 18.33° C | 38% | 1009.2 hPa | 0 mm | - | 675 W/m² | - |
| 1777837172 | 18.33° C | 39% | 1009.1 hPa | 0 mm | - | 811 W/m² | - |
| 1777836868 | 17.78° C | 39% | 1009.2 hPa | 0 mm | - | 845 W/m² | - |
| 1777836564 | 17.78° C | 39% | 1009.5 hPa | 0 mm | - | 873 W/m² | - |
* Rain latest hour (hover to see other rain measurements)
** Current wind speed in m/s (hover to see current wind gust speed)